Terminal Aerodrome Forecast
Issued by NWS Twin Cities, MN

Home | Current Version | Previous Version | Text Only | Print | Product List | Glossary Off
Versions: 1 2 3 4 5 6 7 8 9 10 11 12 13 14 15 16 17

000
FTUS43 KMPX 050520
TAFSTC
TAF
KSTC 050520Z 0506/0606 18007KT 6SM HZ FEW040
     FM051300 18010KT P6SM FEW250
     FM051600 18014G21KT P6SM SCT250
     FM060000 17012G21KT 6SM -TSRA SCT050CB BKN150
     FM060300 VRB15G25KT 2SM TSRA BKN020CB=

USA.gov is the U.S. government's official web portal to all federal, state and local government web resources and services.